Terminal Aerodrome Forecast
Issued by NWS

Home | Current Version | Previous Version | Text Only | Print | Product List | Glossary On
Versions: 1 2 3 4 5 6 7 8 9 10 11 12 13 14 15 16 17 18 19 20
000
FTAK31 PANC 240723 AAA
TAFADL
TAF AMD
PADL 240723Z 2407/2506 VRB05KT 3SM -RASN OVC005
      TEMPO 2407/2409 3/4SM BR OVC004
     FM240900 VRB04KT P6SM VCSH FEW005 BKN025
     FM241400 30007KT P6SM SCT040 BKN150
      AMD LTD TO CLD VIS AND WIND 2407/2416=

USA.gov is the U.S. government's official web portal to all federal, state and local government web resources and services.